Terminal Aerodrome Forecast
Issued by NWS Charleston, WV

Home | Current Version | Previous Version | Text Only | Print | Product List | Glossary On
Versions: 1 2 3 4 5 6 7 8 9 10 11 12 13 14 15 16 17 18 19 20 21 22 23 24 25 26 27
000
FTUS41 KRLX 210500 RRA
TAFPKB
TAF
KPKB 210543Z 2106/2206 24004KT P6SM BKN050
     FM210800 25004KT P6SM BKN035
     FM211200 27005KT P6SM BKN025
     FM211300 28005KT P6SM BKN035
     FM211800 32007KT P6SM OVC025
     FM212000 31007KT 6SM -TSRA OVC035CB
     FM220000 31007KT 6SM -SHRA OVC025=

USA.gov is the U.S. government's official web portal to all federal, state and local government web resources and services.